TimeEDT,TemperatureF,Dew PointF,Humidity,Sea Level PressureIn,VisibilityMPH,Wind Direction,Wind SpeedMPH,Gust SpeedMPH,PrecipitationIn,Events,Conditions,WindDirDegrees,DateUTC
12:53 AM,75.9,69.1,79,29.90,10.0,SSW,3.5,-,N/A,,Partly Cloudy,210,2013-07-21 04:53:00
1:53 AM,75.9,69.1,79,29.91,10.0,SSW,4.6,-,N/A,,Mostly Cloudy,210,2013-07-21 05:53:00
2:53 AM,73.9,69.1,85,29.90,10.0,Calm,Calm,-,N/A,,Partly Cloudy,0,2013-07-21 06:53:00
3:53 AM,72.0,69.1,91,29.89,10.0,Calm,Calm,-,N/A,,Clear,0,2013-07-21 07:53:00
4:53 AM,72.0,69.1,91,29.90,10.0,Calm,Calm,-,N/A,,Clear,0,2013-07-21 08:53:00
5:53 AM,72.0,69.1,91,29.91,10.0,Calm,Calm,-,N/A,,Clear,0,2013-07-21 09:53:00
6:53 AM,71.1,70.0,96,29.93,9.0,Calm,Calm,-,N/A,,Clear,0,2013-07-21 10:53:00
7:53 AM,75.9,70.0,82,29.93,10.0,Calm,Calm,-,N/A,,Clear,0,2013-07-21 11:53:00
8:53 AM,79.0,71.1,77,29.94,10.0,Calm,Calm,-,N/A,,Clear,0,2013-07-21 12:53:00
9:53 AM,82.0,71.1,69,29.94,10.0,Calm,Calm,-,N/A,,Clear,0,2013-07-21 13:53:00
10:53 AM,82.9,71.1,67,29.95,10.0,Calm,Calm,-,N/A,,Clear,0,2013-07-21 14:53:00
11:53 AM,84.9,70.0,61,29.95,10.0,Calm,Calm,-,N/A,,Partly Cloudy,0,2013-07-21 15:53:00
12:53 PM,87.1,71.1,59,29.94,10.0,South,8.1,-,N/A,,Clear,170,2013-07-21 16:53:00
1:53 PM,89.1,70.0,53,29.92,10.0,South,9.2,-,N/A,,Mostly Cloudy,190,2013-07-21 17:53:00
2:53 PM,84.0,72.0,67,29.93,10.0,NW,3.5,-,N/A,,Scattered Clouds,310,2013-07-21 18:53:00
3:53 PM,72.0,68.0,87,29.94,10.0,Calm,Calm,-,0.05,,Overcast,0,2013-07-21 19:53:00
4:53 PM,75.9,69.1,79,29.94,10.0,North,4.6,-,0.00,,Clear,360,2013-07-21 20:53:00
5:53 PM,79.0,69.1,72,29.90,10.0,NNE,5.8,-,N/A,,Clear,20,2013-07-21 21:53:00
6:53 PM,79.0,69.1,72,29.93,10.0,Calm,Calm,-,N/A,,Clear,0,2013-07-21 22:53:00
7:53 PM,75.9,70.0,82,29.94,10.0,SSE,4.6,-,N/A,,Clear,150,2013-07-21 23:53:00
8:53 PM,75.0,70.0,84,29.93,10.0,SSE,5.8,-,N/A,,Clear,160,2013-07-22 00:53:00
9:53 PM,73.0,71.1,93,29.94,10.0,Calm,Calm,-,N/A,,Mostly Cloudy,0,2013-07-22 01:53:00
10:53 PM,73.0,71.1,93,29.94,10.0,Calm,Calm,-,N/A,,Mostly Cloudy,0,2013-07-22 02:53:00
11:53 PM,73.0,71.1,93,29.95,10.0,Calm,Calm,-,0.00,Rain,Light Rain,0,2013-07-22 03:53:00